createdAt,value
2023-02-23T00:01:32.097Z,12.96
2023-02-23T00:04:05.495Z,12.95
2023-02-23T00:06:39.004Z,12.94
2023-02-23T00:09:22.887Z,12.92
2023-02-23T00:11:57.870Z,12.91
2023-02-23T00:14:31.262Z,12.91
2023-02-23T00:17:11.041Z,12.93
2023-02-23T00:19:44.399Z,12.91
2023-02-23T00:22:17.403Z,12.90
2023-02-23T00:24:50.285Z,12.89
2023-02-23T00:27:23.187Z,12.87
2023-02-23T00:29:56.509Z,12.88
2023-02-23T00:32:31.027Z,12.88
2023-02-23T00:35:04.003Z,12.86
2023-02-23T00:37:37.673Z,12.87
2023-02-23T00:40:14.715Z,12.88
2023-02-23T00:42:49.597Z,12.88
2023-02-23T00:45:22.523Z,12.88
2023-02-23T00:47:57.025Z,12.89
2023-02-23T00:50:30.109Z,12.89
2023-02-23T00:53:03.025Z,12.91
2023-02-23T00:55:35.859Z,12.90
2023-02-23T00:58:09.804Z,12.91
2023-02-23T01:00:43.328Z,12.92
2023-02-23T01:03:17.673Z,12.92
2023-02-23T01:05:51.125Z,12.93
2023-02-23T01:08:24.535Z,12.93
2023-02-23T01:10:57.599Z,12.92
2023-02-23T01:13:30.616Z,12.92
2023-02-23T01:16:07.078Z,12.92
2023-02-23T01:18:42.989Z,12.94
2023-02-23T01:21:17.457Z,12.93
2023-02-23T01:23:50.970Z,12.91
2023-02-23T01:26:25.232Z,12.91
2023-02-23T01:29:00.735Z,12.89
2023-02-23T01:31:33.836Z,12.88
2023-02-23T01:34:09.178Z,12.90
2023-02-23T01:36:44.671Z,12.90
2023-02-23T01:39:19.991Z,12.88
2023-02-23T01:41:54.232Z,12.87
2023-02-23T01:45:04.254Z,12.88
2023-02-23T01:47:37.158Z,12.86
2023-02-23T01:50:12.522Z,12.87
2023-02-23T01:52:46.959Z,12.85
2023-02-23T01:55:24.342Z,12.84
2023-02-23T01:58:05.384Z,12.85
2023-02-23T02:00:38.873Z,12.83
2023-02-23T02:03:16.835Z,12.83
2023-02-23T02:05:52.409Z,12.82
2023-02-23T02:08:27.055Z,12.82
2023-02-23T02:10:59.977Z,12.79
2023-02-23T02:13:36.648Z,12.79
2023-02-23T02:16:31.440Z,12.80
2023-02-23T02:19:33.728Z,12.83
2023-02-23T02:22:38.255Z,12.82
2023-02-23T02:25:35.298Z,12.81
2023-02-23T02:28:43.261Z,12.81
2023-02-23T02:31:51.565Z,12.82
2023-02-23T02:34:50.597Z,12.80
2023-02-23T02:37:44.953Z,12.78
2023-02-23T02:40:27.599Z,12.78
2023-02-23T02:43:11.945Z,12.76
2023-02-23T02:45:52.660Z,12.75
2023-02-23T02:48:35.490Z,12.73
2023-02-23T02:51:18.354Z,12.72
2023-02-23T02:54:06.835Z,12.71
2023-02-23T02:56:42.690Z,12.68
2023-02-23T02:59:35.576Z,12.68
2023-02-23T03:02:33.273Z,12.66
2023-02-23T03:05:32.616Z,12.67
2023-02-23T03:08:32.786Z,12.64
2023-02-23T03:11:26.292Z,12.63
2023-02-23T03:14:33.639Z,12.62
2023-02-23T03:17:33.193Z,12.60
2023-02-23T03:20:34.597Z,12.59
2023-02-23T03:23:33.095Z,12.55
2023-02-23T03:26:31.279Z,12.56
2023-02-23T03:29:27.902Z,12.53
2023-02-23T03:32:29.247Z,12.53
2023-02-23T03:35:26.514Z,12.50
2023-02-23T03:38:22.947Z,12.50
2023-02-23T03:41:14.781Z,12.47
2023-02-23T03:44:12.220Z,12.48
2023-02-23T03:47:06.412Z,12.46
2023-02-23T03:49:59.116Z,12.47
2023-02-23T03:52:55.122Z,12.45
2023-02-23T03:55:50.301Z,12.48
2023-02-23T03:58:47.764Z,12.50
2023-02-23T04:01:40.711Z,12.52
2023-02-23T04:04:31.416Z,12.51
2023-02-23T04:07:23.090Z,12.53
2023-02-23T04:10:14.066Z,12.54
2023-02-23T04:13:14.855Z,12.54
2023-02-23T04:15:52.103Z,12.55
2023-02-23T04:18:29.740Z,12.56
2023-02-23T04:21:03.570Z,12.54
2023-02-23T04:23:40.724Z,12.53
2023-02-23T04:26:13.643Z,12.53
2023-02-23T04:28:46.757Z,12.52
2023-02-23T04:31:21.616Z,12.52
2023-02-23T04:33:57.800Z,12.48
2023-02-23T04:36:30.765Z,12.46
2023-02-23T04:39:03.713Z,12.42
2023-02-23T04:41:36.769Z,12.40
2023-02-23T04:44:09.842Z,12.39
2023-02-23T04:46:42.867Z,12.38
2023-02-23T04:49:17.272Z,12.36
2023-02-23T04:51:50.155Z,12.32
2023-02-23T04:54:23.036Z,12.31
2023-02-23T04:56:55.895Z,12.29
2023-02-23T04:59:28.851Z,12.29
2023-02-23T05:02:01.881Z,12.25
2023-02-23T05:04:36.401Z,12.25
2023-02-23T05:07:09.544Z,12.24
2023-02-23T05:09:42.463Z,12.22
2023-02-23T05:12:15.577Z,12.25
2023-02-23T05:14:48.438Z,12.24
2023-02-23T05:17:21.465Z,12.25
2023-02-23T05:19:56.274Z,12.26
2023-02-23T05:22:29.158Z,12.27
2023-02-23T05:25:02.226Z,12.25
2023-02-23T05:27:35.573Z,12.26
2023-02-23T05:30:10.358Z,12.27
2023-02-23T05:32:43.355Z,12.26
2023-02-23T05:35:18.003Z,12.28
2023-02-23T05:37:50.911Z,12.27
2023-02-23T05:40:23.846Z,12.28
2023-02-23T05:43:00.547Z,12.30
2023-02-23T05:45:34.367Z,12.29
2023-02-23T05:48:07.797Z,12.31
2023-02-23T05:50:42.314Z,12.33
2023-02-23T05:53:15.254Z,12.32
2023-02-23T05:55:48.189Z,12.33
2023-02-23T05:58:21.170Z,12.34
2023-02-23T06:00:54.107Z,12.35
2023-02-23T06:03:27.193Z,12.36
2023-02-23T06:06:01.455Z,12.37
2023-02-23T06:08:34.764Z,12.36
2023-02-23T06:11:07.891Z,12.38
2023-02-23T06:13:41.281Z,12.37
2023-02-23T06:16:14.234Z,12.37
2023-02-23T06:18:47.278Z,12.36
2023-02-23T06:21:21.886Z,12.37
2023-02-23T06:23:54.931Z,12.36
2023-02-23T06:26:27.877Z,12.35
2023-02-23T06:29:00.842Z,12.36
2023-02-23T06:31:33.859Z,12.34
2023-02-23T06:34:06.904Z,12.34
2023-02-23T06:36:41.226Z,12.36
2023-02-23T06:39:14.185Z,12.34
2023-02-23T06:41:47.141Z,12.34
2023-02-23T06:44:20.064Z,12.34
2023-02-23T06:46:53.546Z,12.35
2023-02-23T06:49:26.551Z,12.34
2023-02-23T06:52:00.942Z,12.35
2023-02-23T06:54:35.257Z,12.36
2023-02-23T06:57:08.259Z,12.37
2023-02-23T06:59:41.366Z,12.38
2023-02-23T07:02:15.016Z,12.40
2023-02-23T07:04:48.142Z,12.42
2023-02-23T07:07:22.679Z,12.44
2023-02-23T07:09:55.716Z,12.45
2023-02-23T07:12:28.711Z,12.50
2023-02-23T07:15:01.710Z,12.50
2023-02-23T07:17:34.774Z,12.53
2023-02-23T07:20:08.454Z,12.56
2023-02-23T07:22:42.824Z,12.60
2023-02-23T07:25:15.875Z,12.62
2023-02-23T07:27:48.792Z,12.65
2023-02-23T07:30:24.677Z,12.67
2023-02-23T07:32:57.584Z,12.69
2023-02-23T07:35:30.472Z,12.72
2023-02-23T07:38:07.528Z,12.76
2023-02-23T07:40:40.568Z,12.79
2023-02-23T07:43:13.470Z,12.82
2023-02-23T07:45:46.894Z,12.87
2023-02-23T07:48:20.102Z,12.90
2023-02-23T07:50:53.198Z,12.93
2023-02-23T07:53:28.377Z,12.98
2023-02-23T07:56:03.714Z,13.01
2023-02-23T07:58:36.669Z,13.05
2023-02-23T08:01:10.986Z,13.10
2023-02-23T08:03:49.582Z,13.15
2023-02-23T08:06:22.656Z,13.19
2023-02-23T08:08:56.887Z,13.27
2023-02-23T08:11:29.810Z,13.32
2023-02-23T08:14:02.760Z,13.35
2023-02-23T08:16:35.773Z,13.42
2023-02-23T08:19:08.761Z,13.47
2023-02-23T08:21:43.387Z,13.54
2023-02-23T08:24:17.901Z,13.60
2023-02-23T08:26:51.219Z,13.66
2023-02-23T08:29:24.675Z,13.72
2023-02-23T08:31:57.736Z,13.78
2023-02-23T08:34:30.982Z,13.84
2023-02-23T08:37:03.871Z,13.91
2023-02-23T08:39:39.216Z,13.96
2023-02-23T08:42:12.246Z,14.01
2023-02-23T08:44:45.148Z,14.08
2023-02-23T08:47:22.176Z,14.17
2023-02-23T08:49:55.508Z,14.29
2023-02-23T08:52:29.042Z,14.44
2023-02-23T08:55:03.418Z,14.60
2023-02-23T08:57:39.877Z,14.72
2023-02-23T09:00:16.717Z,14.90
2023-02-23T09:02:49.937Z,15.02
2023-02-23T09:05:22.872Z,15.19
2023-02-23T09:07:55.990Z,15.31
2023-02-23T09:10:30.338Z,15.45
2023-02-23T09:13:03.532Z,15.56
2023-02-23T09:15:36.541Z,15.64
2023-02-23T09:18:14.025Z,15.76
2023-02-23T09:20:47.097Z,15.85
2023-02-23T09:23:20.113Z,15.94
2023-02-23T09:25:54.683Z,16.05
2023-02-23T09:28:31.146Z,16.13
2023-02-23T09:31:07.559Z,16.25
2023-02-23T09:33:40.927Z,16.31
2023-02-23T09:36:16.300Z,16.39
2023-02-23T09:38:52.484Z,16.44
2023-02-23T09:41:51.667Z,16.51
2023-02-23T09:44:38.197Z,16.52
2023-02-23T09:47:22.775Z,16.52
2023-02-23T09:49:56.714Z,16.50
2023-02-23T09:52:38.174Z,16.49
2023-02-23T09:55:11.725Z,16.45
2023-02-23T09:57:48.602Z,16.45
2023-02-23T10:00:28.190Z,16.42
2023-02-23T10:03:18.030Z,16.39
2023-02-23T10:05:57.578Z,16.35
2023-02-23T10:08:44.161Z,16.30
2023-02-23T10:11:26.350Z,16.26
2023-02-23T10:14:17.227Z,16.20
2023-02-23T10:17:04.818Z,16.16
2023-02-23T10:19:46.089Z,16.13
2023-02-23T10:22:21.490Z,16.12
2023-02-23T10:24:59.983Z,16.11
2023-02-23T10:27:39.476Z,16.13
2023-02-23T10:30:22.407Z,16.16
2023-02-23T10:33:02.464Z,16.20
2023-02-23T10:35:35.704Z,16.22
2023-02-23T10:38:15.181Z,16.27
2023-02-23T10:40:52.229Z,16.31
2023-02-23T10:43:25.147Z,16.35
2023-02-23T10:46:00.197Z,16.40
2023-02-23T10:48:38.824Z,16.43
2023-02-23T10:51:19.852Z,16.44
2023-02-23T10:53:53.292Z,16.45
2023-02-23T10:56:26.570Z,16.44
2023-02-23T10:59:00.485Z,16.44
2023-02-23T11:02:02.381Z,16.45
2023-02-23T11:04:36.144Z,16.45
2023-02-23T11:07:16.450Z,16.48
2023-02-23T11:09:51.396Z,16.48
2023-02-23T11:12:28.501Z,16.50
2023-02-23T11:15:35.964Z,16.55
2023-02-23T11:18:24.536Z,16.57
2023-02-23T11:20:58.163Z,16.59
2023-02-23T11:23:35.647Z,16.64
2023-02-23T11:26:23.344Z,16.71
2023-02-23T11:28:59.538Z,16.78
2023-02-23T11:31:35.443Z,16.88
2023-02-23T11:34:23.049Z,16.98
2023-02-23T11:37:05.402Z,17.06
2023-02-23T11:39:39.396Z,17.13
2023-02-23T11:42:19.328Z,17.20
2023-02-23T11:44:54.005Z,17.28
2023-02-23T11:47:26.950Z,17.34
2023-02-23T11:50:01.534Z,17.44
2023-02-23T11:52:36.487Z,17.55
2023-02-23T11:55:20.072Z,17.66
2023-02-23T11:57:56.784Z,17.75
2023-02-23T12:00:30.293Z,17.87
2023-02-23T12:03:05.617Z,17.99
2023-02-23T12:05:40.134Z,18.10
2023-02-23T12:08:17.273Z,18.23
2023-02-23T12:10:55.396Z,18.36
2023-02-23T12:13:33.778Z,18.49
2023-02-23T12:16:15.678Z,18.58
2023-02-23T12:18:55.090Z,18.68
2023-02-23T12:21:37.081Z,18.75
2023-02-23T12:24:20.569Z,18.79
2023-02-23T12:27:01.391Z,18.80
2023-02-23T12:29:48.925Z,18.83
2023-02-23T12:32:26.257Z,18.80
2023-02-23T12:35:03.681Z,18.80
2023-02-23T12:37:43.239Z,18.77
2023-02-23T12:40:19.161Z,18.70
2023-02-23T12:43:00.845Z,18.64
2023-02-23T12:45:39.541Z,18.58
2023-02-23T12:48:24.956Z,18.51
2023-02-23T12:51:01.774Z,18.45
2023-02-23T12:53:41.085Z,18.39
2023-02-23T12:56:35.848Z,18.33
2023-02-23T12:59:22.005Z,18.27
2023-02-23T13:01:58.605Z,18.18
2023-02-23T13:04:44.233Z,18.10
2023-02-23T13:07:22.512Z,17.97
2023-02-23T13:10:07.022Z,17.85
2023-02-23T13:12:49.921Z,17.75
2023-02-23T13:15:31.177Z,17.63
2023-02-23T13:18:14.507Z,17.56
2023-02-23T13:20:51.774Z,17.48
2023-02-23T13:23:32.923Z,17.44
2023-02-23T13:26:16.329Z,17.40
2023-02-23T13:28:56.612Z,17.38
2023-02-23T13:31:33.692Z,17.33
2023-02-23T13:34:10.885Z,17.30
2023-02-23T13:36:45.967Z,17.24
2023-02-23T13:39:40.698Z,17.20
2023-02-23T13:42:28.175Z,17.15
2023-02-23T13:45:18.066Z,17.10
2023-02-23T13:47:57.004Z,17.03
2023-02-23T13:50:37.914Z,16.99
2023-02-23T13:53:34.081Z,16.93
2023-02-23T13:56:10.069Z,16.88
2023-02-23T13:58:52.659Z,16.85
2023-02-23T14:01:31.687Z,16.81
2023-02-23T14:04:12.889Z,16.76
2023-02-23T14:06:57.158Z,16.73
2023-02-23T14:09:32.632Z,16.68
2023-02-23T14:12:19.145Z,16.67
2023-02-23T14:14:53.466Z,16.64
2023-02-23T14:17:57.016Z,16.63
2023-02-23T14:20:56.245Z,16.63
2023-02-23T14:23:36.967Z,16.62
2023-02-23T14:26:39.049Z,16.65
2023-02-23T14:29:26.749Z,16.65
2023-02-23T14:32:32.486Z,16.69
2023-02-23T14:35:05.902Z,16.68
2023-02-23T14:37:42.102Z,16.68
2023-02-23T14:40:18.424Z,16.65
2023-02-23T14:42:53.787Z,16.62
2023-02-23T14:45:28.961Z,16.59
2023-02-23T14:48:09.881Z,16.56
2023-02-23T14:50:43.278Z,16.54
2023-02-23T14:53:20.848Z,16.52
2023-02-23T14:55:54.215Z,16.49
2023-02-23T14:58:29.603Z,16.46
2023-02-23T15:01:02.571Z,16.43
2023-02-23T15:03:37.137Z,16.43
2023-02-23T15:06:11.966Z,16.41
2023-02-23T15:08:46.578Z,16.38
2023-02-23T15:11:22.480Z,16.35
2023-02-23T15:13:55.861Z,16.33
2023-02-23T15:16:32.057Z,16.29
2023-02-23T15:19:07.854Z,16.27
2023-02-23T15:21:41.020Z,16.21
2023-02-23T15:24:16.643Z,16.21
2023-02-23T15:26:50.038Z,16.16
2023-02-23T15:29:24.991Z,16.12
2023-02-23T15:31:58.469Z,16.08
2023-02-23T15:34:32.989Z,16.07
2023-02-23T15:37:12.903Z,16.05
2023-02-23T15:39:53.270Z,16.02
2023-02-23T15:42:33.756Z,16.00
2023-02-23T15:45:17.674Z,16.00
2023-02-23T15:47:55.467Z,15.98
2023-02-23T15:50:37.325Z,15.93
2023-02-23T15:53:21.489Z,15.89
2023-02-23T15:56:00.829Z,15.84
2023-02-23T15:58:51.011Z,15.78
2023-02-23T16:01:30.313Z,15.73
2023-02-23T16:04:07.475Z,15.68
2023-02-23T16:06:51.865Z,15.67
2023-02-23T16:09:30.212Z,15.62
2023-02-23T16:12:05.396Z,15.57
2023-02-23T16:14:45.926Z,15.57
2023-02-23T16:17:27.142Z,15.55
2023-02-23T16:20:14.948Z,15.52
2023-02-23T16:22:54.833Z,15.49
2023-02-23T16:25:29.901Z,15.48
2023-02-23T16:28:06.050Z,15.44
2023-02-23T16:30:44.220Z,15.39
2023-02-23T16:33:22.998Z,15.34
2023-02-23T16:36:13.983Z,15.30
2023-02-23T16:39:08.245Z,15.24
2023-02-23T16:41:41.201Z,15.15
2023-02-23T16:44:21.727Z,15.10
2023-02-23T16:47:12.697Z,15.02
2023-02-23T16:49:45.659Z,14.94
2023-02-23T16:52:20.766Z,14.86
2023-02-23T16:54:56.162Z,14.79
2023-02-23T16:57:31.843Z,14.68
2023-02-23T17:00:14.611Z,14.58
2023-02-23T17:02:47.644Z,14.44
2023-02-23T17:05:23.747Z,14.36
2023-02-23T17:07:58.275Z,14.21
2023-02-23T17:10:35.878Z,14.11
2023-02-23T17:13:14.392Z,13.96
2023-02-23T17:15:51.638Z,13.85
2023-02-23T17:18:26.694Z,13.72
2023-02-23T17:21:02.487Z,13.62
2023-02-23T17:23:42.724Z,13.47
2023-02-23T17:26:17.518Z,13.35
2023-02-23T17:28:50.699Z,13.21
2023-02-23T17:31:26.569Z,13.11
2023-02-23T17:34:00.395Z,13.00
2023-02-23T17:36:33.344Z,12.92
2023-02-23T17:39:08.399Z,12.79
2023-02-23T17:41:43.291Z,12.71
2023-02-23T17:44:16.226Z,12.60
2023-02-23T17:46:49.111Z,12.52
2023-02-23T17:49:22.036Z,12.43
2023-02-23T17:51:54.911Z,12.34
2023-02-23T17:54:29.170Z,12.25
2023-02-23T17:57:03.686Z,12.18
2023-02-23T17:59:37.031Z,12.09
2023-02-23T18:02:14.338Z,12.00
2023-02-23T18:04:47.812Z,11.92
2023-02-23T18:07:21.874Z,11.85
2023-02-23T18:09:55.097Z,11.75
2023-02-23T18:12:30.959Z,11.69
2023-02-23T18:15:03.864Z,11.62
2023-02-23T18:17:37.180Z,11.54
2023-02-23T18:20:15.356Z,11.47
2023-02-23T18:22:48.323Z,11.41
2023-02-23T18:25:24.276Z,11.33
2023-02-23T18:27:59.197Z,11.28
2023-02-23T18:30:32.180Z,11.20
2023-02-23T18:33:06.876Z,11.15
2023-02-23T18:35:42.384Z,11.07
2023-02-23T18:38:16.171Z,11.03
2023-02-23T18:40:49.132Z,10.95
2023-02-23T18:43:23.389Z,10.89
2023-02-23T18:45:56.330Z,10.81
2023-02-23T18:48:29.573Z,10.76
2023-02-23T18:51:05.584Z,10.71
2023-02-23T18:53:38.861Z,10.64
2023-02-23T18:56:14.716Z,10.59
2023-02-23T18:58:48.992Z,10.53
2023-02-23T19:01:25.088Z,10.46
2023-02-23T19:04:00.172Z,10.42
2023-02-23T19:06:34.685Z,10.35
2023-02-23T19:09:12.325Z,10.33
2023-02-23T19:11:45.331Z,10.28
2023-02-23T19:14:32.899Z,10.24
2023-02-23T19:17:14.408Z,10.18
2023-02-23T19:19:47.245Z,10.15
2023-02-23T19:22:20.249Z,10.13
2023-02-23T19:24:53.322Z,10.12
2023-02-23T19:27:26.429Z,10.12
2023-02-23T19:30:00.751Z,10.13
2023-02-23T19:32:33.839Z,10.12
2023-02-23T19:35:10.627Z,10.15
2023-02-23T19:37:48.739Z,10.17
2023-02-23T19:40:24.122Z,10.16
2023-02-23T19:42:57.051Z,10.17
2023-02-23T19:45:31.380Z,10.18
2023-02-23T19:48:04.883Z,10.16
2023-02-23T19:50:37.936Z,10.14
2023-02-23T19:53:10.964Z,10.12
2023-02-23T19:55:45.143Z,10.12
2023-02-23T19:58:18.387Z,10.08
2023-02-23T20:00:52.931Z,10.08
2023-02-23T20:03:28.682Z,10.05
2023-02-23T20:06:05.881Z,10.04
2023-02-23T20:08:38.825Z,10.02
2023-02-23T20:11:11.908Z,10.00
2023-02-23T20:13:44.832Z,9.99
2023-02-23T20:16:19.467Z,9.96
2023-02-23T20:18:52.806Z,9.93
2023-02-23T20:21:27.260Z,9.90
2023-02-23T20:24:01.628Z,9.86
2023-02-23T20:26:37.079Z,9.81
2023-02-23T20:29:12.890Z,9.77
2023-02-23T20:31:51.536Z,9.76
2023-02-23T20:34:25.468Z,9.69
2023-02-23T20:36:58.443Z,9.65
2023-02-23T20:39:31.412Z,9.60
2023-02-23T20:42:05.114Z,9.56
2023-02-23T20:44:38.276Z,9.52
2023-02-23T20:47:12.612Z,9.51
2023-02-23T20:49:45.673Z,9.44
2023-02-23T20:52:18.556Z,9.40
2023-02-23T20:54:51.431Z,9.39
2023-02-23T20:57:25.055Z,9.35
2023-02-23T20:59:58.771Z,9.34
2023-02-23T21:02:33.073Z,9.31
2023-02-23T21:05:10.173Z,9.27
2023-02-23T21:07:43.092Z,9.26
2023-02-23T21:10:16.340Z,9.23
2023-02-23T21:12:49.211Z,9.21
2023-02-23T21:15:22.151Z,9.18
2023-02-23T21:17:56.861Z,9.16
2023-02-23T21:20:29.963Z,9.13
2023-02-23T21:23:04.244Z,9.10
2023-02-23T21:25:38.550Z,9.07
2023-02-23T21:28:11.598Z,9.03
2023-02-23T21:30:44.507Z,8.99
2023-02-23T21:33:18.863Z,8.96
2023-02-23T21:35:55.193Z,8.94
2023-02-23T21:38:29.320Z,8.89
2023-02-23T21:41:02.224Z,8.86
2023-02-23T21:43:35.914Z,8.82
2023-02-23T21:46:09.894Z,8.80
2023-02-23T21:48:44.889Z,8.76
2023-02-23T21:51:18.263Z,8.70
2023-02-23T21:53:51.807Z,8.66
2023-02-23T21:56:24.724Z,8.64
2023-02-23T21:58:58.497Z,8.59
2023-02-23T22:01:34.742Z,8.55
2023-02-23T22:04:12.344Z,8.54
2023-02-23T22:06:46.316Z,8.49
2023-02-23T22:09:19.168Z,8.46
2023-02-23T22:11:52.084Z,8.42
2023-02-23T22:14:25.076Z,8.38
2023-02-23T22:16:58.804Z,8.34
2023-02-23T22:19:33.366Z,8.33
2023-02-23T22:22:06.211Z,8.28
2023-02-23T22:24:39.100Z,8.24
2023-02-23T22:27:12.068Z,8.20
2023-02-23T22:29:45.593Z,8.16
2023-02-23T22:32:21.807Z,8.14
2023-02-23T22:34:56.458Z,8.10
2023-02-23T22:37:32.248Z,8.07
2023-02-23T22:40:12.228Z,8.05
2023-02-23T22:42:48.378Z,8.00
2023-02-23T22:45:21.846Z,7.96
2023-02-23T22:47:55.547Z,7.91
2023-02-23T22:50:30.122Z,7.91
2023-02-23T22:53:03.133Z,7.87
2023-02-23T22:55:36.025Z,7.84
2023-02-23T22:58:10.398Z,7.79
2023-02-23T23:01:01.965Z,7.77
2023-02-23T23:03:37.755Z,7.74
2023-02-23T23:06:16.873Z,7.70
2023-02-23T23:08:56.511Z,7.68
2023-02-23T23:11:30.008Z,7.64
2023-02-23T23:14:06.986Z,7.61
2023-02-23T23:16:48.005Z,7.58
2023-02-23T23:19:24.408Z,7.56
2023-02-23T23:22:00.529Z,7.52
2023-02-23T23:24:33.594Z,7.50
2023-02-23T23:27:08.229Z,7.46
2023-02-23T23:29:45.746Z,7.43
2023-02-23T23:32:21.241Z,7.42
2023-02-23T23:34:57.746Z,7.39
2023-02-23T23:37:32.267Z,7.38
2023-02-23T23:40:14.653Z,7.32
2023-02-23T23:42:48.121Z,7.33
2023-02-23T23:45:24.233Z,7.30
2023-02-23T23:47:57.441Z,7.27
2023-02-23T23:50:30.401Z,7.24
2023-02-23T23:53:05.743Z,7.25
2023-02-23T23:55:38.650Z,7.23
2023-02-23T23:58:11.729Z,7.19
